Time;durP1;ratioP1;P1;durP2;ratioP2;P2;SDS_P1;SDS_P2;PMS_P1;PMS_P2;Temp;Humidity;BMP_temperature;BMP_pressure;BME280_temperature;BME280_humidity;BME280_pressure;Samples;Min_cycle;Max_cycle;Signal;HPM_P1;HPM_P2
2023/07/13 00:00:09;360357.00;1.20;621.66;15483.00;0.05;27.45;;;;;25.00;1.00;;;;;;2289247;39;3623;-87
2023/07/13 00:13:06;1526335.00;5.09;2692.77;0.00;0.00;0.62;;;;;25.70;1.00;;;;;;2235170;39;3810;-85
2023/07/13 00:20:47;315792.00;1.05;545.07;0.00;0.00;0.62;;;;;25.10;1.00;;;;;;2278596;56;1668;-88
2023/07/13 00:25:52;274597.00;0.92;474.25;85245.00;0.28;148.10;;;;;24.70;1.00;;;;;;2402694;40;2041;-87
2023/07/13 00:28:39;323737.00;1.08;558.72;1420.00;0.00;3.08;;;;;24.50;1.00;;;;;;2273902;60;1714;-85
2023/07/13 00:36:20;1908812.00;6.36;3438.74;68592.00;0.23;119.33;;;;;24.50;1.00;;;;;;2290390;40;3694;-86
2023/07/13 00:38:52;666317.00;2.22;1148.88;35606.00;0.12;62.29;;;;;24.70;1.00;;;;;;2398326;39;3806;-84
2023/07/13 00:43:57;1114622.00;3.72;1936.59;52760.00;0.18;91.96;;;;;24.50;1.00;;;;;;2389082;40;2185;-88
2023/07/13 00:46:34;789566.00;2.63;1362.93;48596.00;0.16;84.76;;;;;24.10;1.00;;;;;;2303765;39;3439;-87
2023/07/13 00:49:05;813806.00;2.71;1405.21;0.00;0.00;0.62;;;;;24.00;1.00;;;;;;2274278;60;1651;-86
2023/07/13 00:51:36;243874.00;0.81;421.41;0.00;0.00;0.62;;;;;23.80;1.00;;;;;;2271541;61;1741;-87
2023/07/13 00:54:06;135083.00;0.45;234.09;0.00;0.00;0.62;;;;;23.80;1.00;;;;;;2277686;55;3784;-87
2023/07/13 00:56:35;1490507.00;4.97;2625.27;54169.00;0.18;94.40;;;;;23.70;1.00;;;;;;2277331;60;1567;-86
2023/07/13 00:59:05;314535.00;1.05;542.90;26569.00;0.09;46.64;;;;;23.40;1.00;;;;;;2272580;60;1734;-88
2023/07/13 01:01:31;210341.00;0.70;363.72;0.00;0.00;0.62;;;;;23.30;1.00;;;;;;2279204;40;3742;-89
2023/07/13 01:03:58;356111.00;1.19;614.36;61204.00;0.20;106.56;;;;;23.20;1.00;;;;;;2276193;60;922;-88
2023/07/13 01:06:26;344468.00;1.15;594.35;0.00;0.00;0.62;;;;;23.00;1.00;;;;;;2278962;39;3516;-85
2023/07/13 01:08:53;1019068.00;3.40;1766.27;0.00;0.00;0.62;;;;;23.00;1.00;;;;;;2273244;60;1411;-84
2023/07/13 01:11:22;256379.00;0.85;442.92;0.00;0.00;0.62;;;;;23.20;1.00;;;;;;2272156;61;1012;-90
2023/07/13 01:13:49;286878.00;0.96;495.36;0.00;0.00;0.62;;;;;23.10;1.00;;;;;;2272257;61;1126;-86
2023/07/13 01:16:24;379505.00;1.27;654.57;0.00;0.00;0.62;;;;;23.30;1.00;;;;;;2272250;61;1584;-88
2023/07/13 01:18:51;273190.00;0.91;471.83;0.00;0.00;0.62;;;;;23.40;1.00;;;;;;2272166;61;1360;-88
2023/07/13 01:21:20;218730.00;0.73;378.16;0.00;0.00;0.62;;;;;23.60;1.00;;;;;;2272126;61;1033;-85
2023/07/13 01:23:48;443114.00;1.48;763.94;0.00;0.00;0.62;;;;;23.60;1.00;;;;;;2272044;61;1067;-87
2023/07/13 01:28:50;988002.00;3.29;1711.23;0.00;0.00;0.62;;;;;24.00;1.00;;;;;;2278811;55;3800;-85
2023/07/13 01:31:17;318020.00;1.06;548.89;57295.00;0.19;99.80;;;;;24.20;1.00;;;;;;2282215;55;3806;-85
2023/07/13 01:33:45;282947.00;0.94;488.60;0.00;0.00;0.62;;;;;24.30;1.00;;;;;;2276248;60;1090;-88
2023/07/13 01:36:13;532494.00;1.77;917.79;0.00;0.00;0.62;;;;;24.30;1.00;;;;;;2291994;40;3789;-86
2023/07/13 01:38:41;224831.00;0.75;388.66;0.00;0.00;0.62;;;;;24.40;1.00;;;;;;2273968;60;1620;-87
2023/07/13 01:41:08;257954.00;0.86;445.63;26232.00;0.09;46.06;;;;;24.80;1.00;;;;;;2272191;61;921;-86
2023/07/13 01:43:36;172172.00;0.57;298.01;0.00;0.00;0.62;;;;;25.00;1.00;;;;;;2272160;61;989;-86
2023/07/13 01:46:03;261513.00;0.87;451.75;0.00;0.00;0.62;;;;;24.90;1.00;;;;;;2287833;40;3659;-87
2023/07/13 01:48:30;202427.00;0.67;350.10;0.00;0.00;0.62;;;;;24.70;1.00;;;;;;2274162;60;1621;-86
2023/07/13 01:50:57;473927.00;1.58;816.95;80473.00;0.27;139.85;;;;;24.70;1.00;;;;;;2272057;61;1332;-86
2023/07/13 01:55:55;1080637.00;3.60;1875.83;0.00;0.00;0.62;;;;;24.80;1.00;;;;;;2273471;61;1267;-86
2023/07/13 01:58:22;560754.00;1.87;966.50;50089.00;0.17;87.34;;;;;24.60;1.00;;;;;;2274422;40;3593;-86
2023/07/13 02:00:50;338147.00;1.13;583.49;0.00;0.00;0.62;;;;;24.70;1.00;;;;;;2272134;61;977;-88
2023/07/13 02:03:18;393487.00;1.31;678.61;3679.00;0.01;7.00;;;;;24.60;1.00;;;;;;2271880;61;1726;-89
2023/07/13 02:05:45;160476.00;0.53;277.86;0.00;0.00;0.62;;;;;24.50;1.00;;;;;;2272156;61;1924;-86
2023/07/13 02:08:12;350204.00;1.17;604.21;0.00;0.00;0.62;;;;;24.40;1.00;;;;;;2271914;61;1581;-84
2023/07/13 02:10:39;345871.00;1.15;596.76;0.00;0.00;0.62;;;;;24.10;1.00;;;;;;2271858;61;1694;-87
2023/07/13 02:13:09;233896.00;0.78;404.25;0.00;0.00;0.62;;;;;24.20;1.00;;;;;;2271680;61;1210;-87
2023/07/13 02:15:39;456311.00;1.52;786.64;370.00;0.00;1.26;;;;;24.10;1.00;;;;;;2296690;40;3669;-89
2023/07/13 02:18:07;306960.00;1.02;529.88;81799.00;0.27;142.14;;;;;24.30;1.00;;;;;;2296187;40;3809;-85
2023/07/13 02:20:36;579230.00;1.93;998.37;146248.00;0.49;253.34;;;;;24.40;1.00;;;;;;2271931;61;926;-87
2023/07/13 02:23:03;231896.00;0.77;400.81;22989.00;0.08;40.45;;;;;24.40;1.00;;;;;;2275125;39;3638;-85
2023/07/13 02:25:30;343939.00;1.15;593.44;55050.00;0.18;95.92;;;;;24.20;1.00;;;;;;2280651;40;3801;-85
2023/07/13 02:27:57;418105.00;1.39;720.93;46903.00;0.16;81.83;;;;;23.90;1.00;;;;;;2291749;40;3812;-85
2023/07/13 02:30:26;397411.00;1.32;685.35;0.00;0.00;0.62;;;;;23.90;1.00;;;;;;2280341;39;3591;-86
2023/07/13 02:32:53;211989.00;0.71;366.56;42698.00;0.14;74.56;;;;;23.80;1.00;;;;;;2276022;60;1026;-87
2023/07/13 02:35:20;340210.00;1.13;587.03;46038.00;0.15;80.33;;;;;24.10;1.00;;;;;;2287080;40;3733;-86
2023/07/13 02:37:47;206576.00;0.69;357.24;0.00;0.00;0.62;;;;;24.20;1.00;;;;;;2271297;61;1403;-89
2023/07/13 02:40:14;224415.00;0.75;387.94;15555.00;0.05;27.57;;;;;24.40;1.00;;;;;;2267996;61;910;-87
2023/07/13 02:42:41;270883.00;0.90;467.86;0.00;0.00;0.62;;;;;24.40;1.00;;;;;;2287132;40;3616;-86
2023/07/13 02:45:12;240688.00;0.80;415.93;0.00;0.00;0.62;;;;;24.30;1.00;;;;;;2275847;60;1016;-86
2023/07/13 02:47:42;186145.00;0.62;322.07;0.00;0.00;0.62;;;;;24.30;1.00;;;;;;2275448;60;2009;-88
2023/07/13 02:50:09;488314.00;1.63;841.71;49492.00;0.16;86.31;;;;;24.50;1.00;;;;;;2271863;61;1722;-88
2023/07/13 02:52:36;260863.00;0.87;450.63;0.00;0.00;0.62;;;;;24.30;1.00;;;;;;2271842;61;1626;-88
2023/07/13 02:57:39;1383990.00;4.61;2426.66;0.00;0.00;0.62;;;;;24.40;1.00;;;;;;2274908;55;3678;-85
2023/07/13 03:00:10;648743.00;2.16;1118.46;83309.00;0.28;144.75;;;;;24.40;1.00;;;;;;2271832;61;1036;-88
2023/07/13 03:05:07;1066619.00;3.56;1850.83;0.00;0.00;0.62;;;;;24.50;1.00;;;;;;2277761;61;1403;-86
2023/07/13 03:07:34;299599.00;1.00;517.23;24765.00;0.08;43.52;;;;;24.30;1.00;;;;;;2276120;61;2012;-87
2023/07/13 03:10:01;258658.00;0.86;446.84;0.00;0.00;0.62;;;;;24.30;1.00;;;;;;2276246;61;1103;-88
2023/07/13 03:12:27;264302.00;0.88;456.55;0.00;0.00;0.62;;;;;24.20;1.00;;;;;;2278045;55;3812;-90
2023/07/13 03:14:54;248740.00;0.83;429.78;0.00;0.00;0.62;;;;;24.10;1.00;;;;;;2300468;39;3652;-86
2023/07/13 03:19:52;1362169.00;4.54;2386.34;45406.00;0.15;79.24;;;;;24.10;1.00;;;;;;2274590;61;1311;-86
2023/07/13 03:22:21;280412.00;0.93;484.25;65639.00;0.22;114.22;;;;;24.10;1.00;;;;;;2281899;40;3797;-85
2023/07/13 03:24:48;311000.00;1.04;536.83;0.00;0.00;0.62;;;;;23.60;1.00;;;;;;2275995;60;1025;-89
2023/07/13 03:27:17;390669.00;1.30;673.76;0.00;0.00;0.62;;;;;23.40;1.00;;;;;;2275931;60;2010;-88
2023/07/13 03:29:45;535758.00;1.79;923.41;108496.00;0.36;188.23;;;;;23.40;1.00;;;;;;2272207;61;1789;-89
2023/07/13 03:34:39;1452917.00;4.84;2554.83;0.00;0.00;0.62;;;;;23.40;1.00;;;;;;2277655;61;1389;-87
2023/07/13 03:37:07;549197.00;1.83;946.58;51109.00;0.17;89.10;;;;;23.30;1.00;;;;;;2276298;61;1164;-86
2023/07/13 03:39:35;269053.00;0.90;464.72;0.00;0.00;0.62;;;;;23.70;1.00;;;;;;2276271;61;1387;-87
2023/07/13 03:42:02;275254.00;0.92;475.38;46790.00;0.16;81.63;;;;;24.00;1.00;;;;;;2276233;61;1077;-87
2023/07/13 03:44:30;199728.00;0.67;345.46;41905.00;0.14;73.18;;;;;24.00;1.00;;;;;;2276195;61;1584;-88
2023/07/13 03:49:30;1343554.00;4.48;2352.04;0.00;0.00;0.62;;;;;24.10;1.00;;;;;;2292618;55;3800;-87
2023/07/13 03:51:57;199985.00;0.67;345.90;0.00;0.00;0.62;;;;;24.20;1.00;;;;;;2276048;60;1584;-86
2023/07/13 03:54:24;163877.00;0.55;283.72;0.00;0.00;0.62;;;;;24.30;1.00;;;;;;2311702;39;3612;-85
2023/07/13 03:59:21;829600.00;2.77;1432.80;0.00;0.00;0.62;;;;;24.50;1.00;;;;;;2281648;40;3421;-85
2023/07/13 04:01:49;254216.00;0.85;439.20;0.00;0.00;0.62;;;;;24.60;1.00;;;;;;2277468;39;3630;-87
2023/07/13 04:04:16;520068.00;1.73;896.38;34904.00;0.12;61.07;;;;;24.20;1.00;;;;;;2297178;40;3624;-86
2023/07/13 04:09:16;1061225.00;3.54;1841.22;0.00;0.00;0.62;;;;;24.50;1.00;;;;;;2273515;61;1441;-87
2023/07/13 04:11:43;155320.00;0.52;268.98;0.00;0.00;0.62;;;;;24.50;1.00;;;;;;2271996;61;959;-88
2023/07/13 04:14:10;499740.00;1.67;861.38;37849.00;0.13;66.17;;;;;24.30;1.00;;;;;;2313410;55;3787;-88
2023/07/13 04:16:39;476148.00;1.59;820.77;32148.00;0.11;56.30;;;;;24.30;1.00;;;;;;2276019;60;1178;-87
2023/07/13 04:19:06;214323.00;0.71;370.57;0.00;0.00;0.62;;;;;24.20;1.00;;;;;;2272998;60;1379;-86
2023/07/13 04:21:33;168010.00;0.56;290.84;0.00;0.00;0.62;;;;;24.00;1.00;;;;;;2272007;61;1631;-86
2023/07/13 04:24:00;243345.00;0.81;420.50;0.00;0.00;0.62;;;;;24.00;1.00;;;;;;2272033;61;997;-86
2023/07/13 04:28:58;978294.00;3.26;1694.07;0.00;0.00;0.62;;;;;24.30;1.00;;;;;;2277736;61;1374;-88
2023/07/13 04:31:25;542132.00;1.81;934.40;0.00;0.00;0.62;;;;;24.20;1.00;;;;;;2282930;56;3778;-87
2023/07/13 04:33:54;450007.00;1.50;775.79;103949.00;0.35;180.39;;;;;24.30;1.00;;;;;;2275890;60;992;-86
2023/07/13 04:36:21;391317.00;1.30;674.88;0.00;0.00;0.62;;;;;24.20;1.00;;;;;;2275835;60;1274;-87
2023/07/13 04:38:48;255022.00;0.85;440.59;0.00;0.00;0.62;;;;;23.60;1.00;;;;;;2273573;60;1321;-85
2023/07/13 04:41:16;178807.00;0.60;309.44;0.00;0.00;0.62;;;;;23.80;1.00;;;;;;2289260;40;3809;-87
2023/07/13 04:43:43;422819.00;1.41;729.04;58027.00;0.19;101.07;;;;;23.70;1.00;;;;;;2271945;61;997;-88
2023/07/13 04:46:14;186424.00;0.62;322.55;31624.00;0.11;55.39;;;;;23.60;1.00;;;;;;2271725;61;2008;-88
2023/07/13 04:48:42;278133.00;0.93;480.33;0.00;0.00;0.62;;;;;23.40;1.00;;;;;;2275016;55;3833;-87
2023/07/13 04:51:11;215181.00;0.72;372.05;0.00;0.00;0.62;;;;;23.30;1.00;;;;;;2271888;61;1221;-88
2023/07/13 04:53:38;311407.00;1.04;537.53;28261.00;0.09;49.57;;;;;23.50;1.00;;;;;;2271716;61;1812;-87
2023/07/13 05:01:05;1287151.00;4.29;2248.61;0.00;0.00;0.62;;;;;24.10;1.00;;;;;;2277424;61;1343;-87
2023/07/13 05:03:33;217844.00;0.73;376.63;0.00;0.00;0.62;;;;;24.20;1.00;;;;;;2277582;55;3761;-86
2023/07/13 05:06:01;368183.00;1.23;635.11;24038.00;0.08;42.26;;;;;24.30;1.00;;;;;;2275732;60;1982;-85
2023/07/13 05:08:30;189921.00;0.63;328.57;0.00;0.00;0.62;;;;;24.20;1.00;;;;;;2274006;60;1394;-87
2023/07/13 05:10:57;203262.00;0.68;351.54;0.00;0.00;0.62;;;;;24.40;1.00;;;;;;2271734;61;1046;-86
2023/07/13 05:13:24;310814.00;1.04;536.51;0.00;0.00;0.62;;;;;24.40;1.00;;;;;;2271675;61;1683;-87
2023/07/13 05:15:57;282890.00;0.94;488.51;1037.00;0.00;2.42;;;;;24.40;1.00;;;;;;2271682;61;1618;-85
2023/07/13 05:18:24;381466.00;1.27;657.95;0.00;0.00;0.62;;;;;24.40;1.00;;;;;;2271648;61;1312;-86
2023/07/13 05:21:01;342899.00;1.14;591.66;0.00;0.00;0.62;;;;;24.50;1.00;;;;;;2271685;61;1507;-85
2023/07/13 05:23:31;332182.00;1.11;573.24;393.00;0.00;1.30;;;;;24.60;1.00;;;;;;2271651;61;890;-88
2023/07/13 05:28:33;421428.00;1.40;726.65;0.00;0.00;0.62;;;;;24.70;1.00;;;;;;2340049;40;2026;-86
2023/07/13 05:31:00;192876.00;0.64;333.66;15369.00;0.05;27.25;;;;;24.70;1.00;;;;;;2274670;55;3696;-86
2023/07/13 05:33:28;863203.00;2.88;1491.58;49356.00;0.16;86.07;;;;;24.60;1.00;;;;;;2275547;60;1706;-87
2023/07/13 05:35:55;313271.00;1.04;540.73;0.00;0.00;0.62;;;;;24.00;1.00;;;;;;2275711;60;1218;-87
2023/07/13 05:38:22;464148.00;1.55;800.12;82771.00;0.28;143.82;;;;;23.70;1.00;;;;;;2274107;60;1738;-86
2023/07/13 05:40:51;202654.00;0.68;350.49;0.00;0.00;0.62;;;;;23.60;1.00;;;;;;2271831;61;1044;-84
2023/07/13 05:43:21;345217.00;1.15;595.64;26280.00;0.09;46.14;;;;;23.40;1.00;;;;;;2271706;61;929;-87
2023/07/13 05:45:49;233623.00;0.78;403.78;71551.00;0.24;124.44;;;;;23.40;1.00;;;;;;2271633;61;1313;-87
2023/07/13 05:48:17;127775.00;0.43;221.49;0.00;0.00;0.62;;;;;23.40;1.00;;;;;;2272292;61;2011;-85
2023/07/13 05:50:44;306083.00;1.02;528.38;63640.00;0.21;110.77;;;;;23.30;1.00;;;;;;2272591;61;1772;-87
2023/07/13 05:53:13;198179.00;0.66;342.79;62893.00;0.21;109.48;;;;;23.00;1.00;;;;;;2272501;61;1066;-86
2023/07/13 05:55:44;217399.00;0.72;375.87;53512.00;0.18;93.26;;;;;22.90;1.00;;;;;;2272342;61;898;-86
2023/07/13 06:00:48;1862318.00;6.21;3345.34;212636.00;0.71;367.67;;;;;24.30;1.00;;;;;;2274067;61;1419;-88
2023/07/13 06:03:16;529316.00;1.76;912.31;85592.00;0.29;148.70;;;;;25.40;1.00;;;;;;2272398;61;1271;-86
2023/07/13 06:05:44;406581.00;1.36;701.12;63145.00;0.21;109.91;;;;;26.70;1.00;;;;;;2272536;61;931;-86
2023/07/13 06:08:11;1101333.00;3.67;1912.81;182655.00;0.61;316.06;;;;;27.60;1.00;;;;;;2272397;61;2011;-88
2023/07/13 06:10:39;529211.00;1.76;912.13;77791.00;0.26;135.22;;;;;27.60;1.00;;;;;;2272642;61;918;-87
2023/07/13 06:13:06;534312.00;1.78;920.92;55395.00;0.18;96.52;;;;;27.40;1.00;;;;;;2272436;61;1639;-87
2023/07/13 06:15:34;491572.00;1.64;847.31;58207.00;0.19;101.38;;;;;27.40;1.00;;;;;;2272451;61;1027;-88
2023/07/13 06:18:02;418301.00;1.39;721.27;94057.00;0.31;163.31;;;;;27.40;1.00;;;;;;2272548;61;1845;-88
2023/07/13 06:20:30;362580.00;1.21;625.48;84020.00;0.28;145.98;;;;;27.40;1.00;;;;;;2272562;61;1194;-86
2023/07/13 06:22:57;411615.00;1.37;709.77;130979.00;0.44;227.02;;;;;27.80;1.00;;;;;;2272353;61;1597;-88
2023/07/13 06:25:25;485930.00;1.62;837.60;136443.00;0.45;236.44;;;;;28.50;1.00;;;;;;2272347;61;1630;-86
2023/07/13 06:27:52;371092.00;1.24;640.11;66242.00;0.22;115.27;;;;;29.90;1.00;;;;;;2272355;61;1912;-90
2023/07/13 06:30:20;374068.00;1.25;645.23;98468.00;0.33;170.93;;;;;31.30;1.00;;;;;;2279943;39;3586;-84
2023/07/13 06:32:47;510178.00;1.70;879.35;94996.00;0.32;164.93;;;;;32.00;1.00;;;;;;2276437;60;1275;-86
2023/07/13 06:35:16;442283.00;1.47;762.51;60773.00;0.20;105.81;;;;;32.30;1.00;;;;;;2276308;60;1935;-88
2023/07/13 06:37:43;480319.00;1.60;827.95;125086.00;0.42;216.85;;;;;32.40;1.00;;;;;;2275893;60;1253;-83
2023/07/13 06:40:11;828307.00;2.76;1430.54;137558.00;0.46;238.36;;;;;33.20;1.00;;;;;;2302530;39;3662;-85
2023/07/13 06:42:39;475823.00;1.59;820.21;105935.00;0.35;183.82;;;;;34.00;1.00;;;;;;2276412;60;1122;-86
2023/07/13 06:45:08;416782.00;1.39;718.66;94450.00;0.31;163.99;;;;;34.50;1.00;;;;;;2276497;60;1200;-85
2023/07/13 06:47:35;751077.00;2.50;1295.93;59157.00;0.20;103.02;;;;;34.70;1.00;;;;;;2276189;60;2058;-85
2023/07/13 06:50:02;498048.00;1.66;858.46;82582.00;0.28;143.50;;;;;35.30;1.00;;;;;;2272550;61;1123;-86
2023/07/13 06:52:30;531392.00;1.77;915.89;99892.00;0.33;173.39;;;;;35.40;1.00;;;;;;2272489;61;1220;-88
2023/07/13 06:54:57;583209.00;1.94;1005.24;123483.00;0.41;214.09;;;;;35.60;1.00;;;;;;2272530;61;1632;-87
2023/07/13 06:57:26;369176.00;1.23;636.82;58433.00;0.19;101.77;;;;;35.90;1.00;;;;;;2272256;61;1134;-86
2023/07/13 06:59:53;487111.00;1.62;839.64;51590.00;0.17;89.94;;;;;36.80;1.00;;;;;;2272141;61;1601;-87
2023/07/13 07:02:20;336187.00;1.12;580.12;55943.00;0.19;97.46;;;;;36.40;1.00;;;;;;2272338;61;1020;-86
2023/07/13 07:04:47;437652.00;1.46;754.54;80885.00;0.27;140.57;;;;;36.90;1.00;;;;;;2272286;61;1615;-87
2023/07/13 07:07:14;436225.00;1.45;752.09;87352.00;0.29;151.74;;;;;36.20;1.00;;;;;;2272242;61;1913;-86
2023/07/13 07:09:43;500672.00;1.67;862.98;71417.00;0.24;124.21;;;;;36.90;1.00;;;;;;2272326;61;1265;-85
2023/07/13 07:12:10;456528.00;1.52;787.01;62421.00;0.21;108.66;;;;;36.00;1.00;;;;;;2272410;61;1280;-87
2023/07/13 07:14:37;538780.00;1.80;928.62;145302.00;0.48;251.71;;;;;35.80;1.00;;;;;;2272462;61;1219;-85
2023/07/13 07:17:04;500220.00;1.67;862.20;72625.00;0.24;126.30;;;;;36.20;1.00;;;;;;2272240;61;1337;-87
2023/07/13 07:19:33;386326.00;1.29;666.30;50400.00;0.17;87.88;;;;;36.30;1.00;;;;;;2272126;61;1311;-86
2023/07/13 07:22:00;483352.00;1.61;833.17;51639.00;0.17;90.02;;;;;36.60;1.00;;;;;;2272214;61;1745;-85
2023/07/13 07:24:27;511613.00;1.71;881.82;75136.00;0.25;130.63;;;;;36.30;1.00;;;;;;2271887;61;1796;-85
2023/07/13 07:26:56;891543.00;2.97;1541.27;171075.00;0.57;296.12;;;;;35.70;1.00;;;;;;2306046;56;3739;-86
2023/07/13 07:29:26;525329.00;1.75;905.44;71862.00;0.24;124.98;;;;;34.60;1.00;;;;;;2272684;61;1399;-85
2023/07/13 07:31:55;350068.00;1.17;603.98;57344.00;0.19;99.89;;;;;34.80;1.00;;;;;;2271932;61;1727;-86
2023/07/13 07:34:22;357614.00;1.19;616.95;50387.00;0.17;87.86;;;;;35.30;1.00;;;;;;2271905;61;1190;-87
2023/07/13 07:36:49;421822.00;1.41;727.32;104802.00;0.35;181.86;;;;;35.70;1.00;;;;;;2272067;61;1317;-86
2023/07/13 07:39:17;117766464.00;392.55;66160240.00;103691.00;0.35;179.94;;;;;35.80;1.00;;;;;;2271830;61;1297;-86
2023/07/13 07:41:44;500781.00;1.67;863.17;56313.00;0.19;98.10;;;;;35.70;1.00;;;;;;2272045;61;1101;-87
2023/07/13 07:44:12;338997.00;1.13;584.95;53711.00;0.18;93.60;;;;;36.90;1.00;;;;;;2272212;61;1633;-86
2023/07/13 07:46:41;419765.00;1.40;723.79;56241.00;0.19;97.98;;;;;36.60;1.00;;;;;;2272025;61;1014;-86
2023/07/13 07:49:08;357231.00;1.19;616.29;69687.00;0.23;121.22;;;;;36.40;1.00;;;;;;2272055;61;2012;-88
2023/07/13 07:51:35;491730.00;1.64;847.59;57127.00;0.19;99.51;;;;;36.90;1.00;;;;;;2272011;61;1723;-86
2023/07/13 07:54:02;331099.00;1.10;571.38;63783.00;0.21;111.02;;;;;37.10;1.00;;;;;;2271932;61;1735;-86
2023/07/13 07:56:29;549223.00;1.83;946.62;97133.00;0.32;168.62;;;;;36.90;1.00;;;;;;2271366;61;1607;-85
2023/07/13 07:58:56;313858.00;1.05;541.74;44441.00;0.15;77.57;;;;;37.00;1.00;;;;;;2271722;61;1340;-86
2023/07/13 08:01:25;420626.00;1.40;725.27;35011.00;0.12;61.26;;;;;36.90;1.00;;;;;;2271623;61;1050;-86
2023/07/13 08:03:52;326596.00;1.09;563.64;104893.00;0.35;182.02;;;;;36.70;1.00;;;;;;2272103;61;958;-86
2023/07/13 08:06:19;516349.00;1.72;889.98;63348.00;0.21;110.26;;;;;36.60;1.00;;;;;;2272109;61;1149;-87
2023/07/13 08:08:47;299185.00;1.00;516.52;46803.00;0.16;81.66;;;;;37.20;1.00;;;;;;2271861;61;2006;-86
2023/07/13 08:11:14;481191.00;1.60;829.45;54285.00;0.18;94.60;;;;;37.50;1.00;;;;;;2271773;61;1198;-87
2023/07/13 08:13:44;379135.00;1.26;653.94;58960.00;0.20;102.68;;;;;37.80;1.00;;;;;;2272120;61;1261;-87
2023/07/13 08:16:11;799953.00;2.67;1381.04;52695.00;0.18;91.85;;;;;38.50;1.00;;;;;;2282471;56;3775;-86
2023/07/13 08:18:40;372489.00;1.24;642.51;50484.00;0.17;88.02;;;;;38.40;1.00;;;;;;2273963;60;1285;-86
2023/07/13 08:21:10;424711.00;1.42;732.29;56241.00;0.19;97.98;;;;;37.50;1.00;;;;;;2272111;61;1738;-86
2023/07/13 08:23:38;444005.00;1.48;765.47;104587.00;0.35;181.49;;;;;38.10;1.00;;;;;;2271926;61;1063;-88
2023/07/13 08:26:05;378196.00;1.26;652.32;56392.00;0.19;98.24;;;;;37.70;1.00;;;;;;2272059;61;1152;-88
2023/07/13 08:28:34;423252.00;1.41;729.78;51866.00;0.17;90.41;;;;;37.80;1.00;;;;;;2271761;61;1914;-87
2023/07/13 08:31:04;488520.00;1.63;842.06;48183.00;0.16;84.04;;;;;36.80;1.00;;;;;;2272114;61;1029;-85
2023/07/13 08:33:32;441088.00;1.47;760.45;62582.00;0.21;108.94;;;;;36.20;1.00;;;;;;2271996;61;1121;-84
2023/07/13 08:36:00;529476.00;1.76;912.59;55824.00;0.19;97.26;;;;;35.70;1.00;;;;;;2271718;61;1035;-87
2023/07/13 08:38:27;708425.00;2.36;1221.85;83186.00;0.28;144.54;;;;;35.50;1.00;;;;;;2272051;61;1585;-86
2023/07/13 08:40:57;796347.00;2.65;1374.75;48705.00;0.16;84.95;;;;;35.70;1.00;;;;;;2272049;61;2064;-88
2023/07/13 08:43:28;550623.00;1.84;949.03;47902.00;0.16;83.56;;;;;36.10;1.00;;;;;;2271917;61;1744;-88
2023/07/13 08:46:02;300380.00;1.00;518.57;0.00;0.00;0.62;;;;;36.00;1.00;;;;;;2272115;61;1134;-87
2023/07/13 08:48:35;393913.00;1.31;679.34;0.00;0.00;0.62;;;;;35.50;1.00;;;;;;2271876;61;1983;-86
2023/07/13 08:51:11;356344.00;1.19;614.76;0.00;0.00;0.62;;;;;34.70;1.00;;;;;;2271871;61;1154;-86
2023/07/13 08:53:43;136446.00;0.45;236.44;57482.00;0.19;100.12;;;;;34.90;1.00;;;;;;2271928;61;1119;-87
2023/07/13 08:56:16;379902.00;1.27;655.26;0.00;0.00;0.62;;;;;34.70;1.00;;;;;;2271863;61;1145;-87
2023/07/13 08:58:43;219856.00;0.73;380.10;0.00;0.00;0.62;;;;;34.90;1.00;;;;;;2271876;61;1444;-86
2023/07/13 09:01:21;274869.00;0.92;474.72;4729.00;0.02;8.82;;;;;35.30;1.00;;;;;;2271924;61;2293;-85
2023/07/13 09:04:00;182031.00;0.61;314.99;0.00;0.00;0.62;;;;;34.40;1.00;;;;;;2272026;61;1150;-84
2023/07/13 09:06:40;48749.00;0.16;85.02;0.00;0.00;0.62;;;;;34.20;1.00;;;;;;2271915;61;1079;-85
2023/07/13 09:09:18;194981.00;0.65;337.28;0.00;0.00;0.62;;;;;33.90;1.00;;;;;;2271850;61;1924;-86
2023/07/13 09:11:52;352206.00;1.17;607.65;0.00;0.00;0.62;;;;;34.00;1.00;;;;;;2271739;61;1707;-87
2023/07/13 09:14:37;294792.00;0.98;508.97;71974.00;0.24;125.17;;;;;34.00;1.00;;;;;;2271924;61;1732;-86
2023/07/13 09:17:07;74551.00;0.25;129.62;0.00;0.00;0.62;;;;;34.40;1.00;;;;;;2271875;61;1209;-86
2023/07/13 09:19:36;162496.00;0.54;281.34;0.00;0.00;0.62;;;;;33.90;1.00;;;;;;2271810;61;1705;-85
2023/07/13 09:22:15;86045.00;0.29;149.48;0.00;0.00;0.62;;;;;33.10;1.00;;;;;;2272064;61;1019;-86
2023/07/13 09:24:53;74902.00;0.25;130.23;0.00;0.00;0.62;;;;;33.70;1.00;;;;;;2272628;61;1495;-87
2023/07/13 09:27:24;164191.00;0.55;284.26;0.00;0.00;0.62;;;;;33.40;1.00;;;;;;2272653;61;1992;-87
2023/07/13 09:29:58;129865.00;0.43;225.10;0.00;0.00;0.62;;;;;33.40;1.00;;;;;;2272674;61;1289;-88
2023/07/13 09:32:28;178584.00;0.60;309.05;0.00;0.00;0.62;;;;;33.20;1.00;;;;;;2272578;61;1049;-86
2023/07/13 09:34:56;707049.00;2.36;1219.46;0.00;0.00;0.62;;;;;33.30;1.00;;;;;;2289518;56;3751;-86
2023/07/13 09:37:32;247796.00;0.83;428.16;0.00;0.00;0.62;;;;;32.70;1.00;;;;;;2276461;60;1109;-87
2023/07/13 09:40:04;145533.00;0.49;252.11;0.00;0.00;0.62;;;;;32.60;1.00;;;;;;2272430;61;1162;-86
2023/07/13 09:42:34;36553.00;0.12;63.92;0.00;0.00;0.62;;;;;32.60;1.00;;;;;;2272452;61;1039;-88
2023/07/13 09:45:03;296486.00;0.99;511.88;56086.00;0.19;97.71;;;;;31.90;1.00;;;;;;2272568;61;1665;-86
2023/07/13 09:47:33;148477.00;0.49;257.18;0.00;0.00;0.62;;;;;31.80;1.00;;;;;;2272367;61;1985;-87
2023/07/13 09:50:02;185009.00;0.62;320.12;25440.00;0.08;44.69;;;;;31.20;1.00;;;;;;2272472;61;1749;-86
2023/07/13 09:52:43;202018.00;0.67;349.40;0.00;0.00;0.62;;;;;30.80;1.00;;;;;;2276412;39;3596;-87
2023/07/13 09:55:26;332765.00;1.11;574.24;0.00;0.00;0.62;;;;;30.60;1.00;;;;;;2276478;60;1750;-86
2023/07/13 09:57:54;252788.00;0.84;436.75;0.00;0.00;0.62;;;;;30.60;1.00;;;;;;2275658;60;1376;-86
2023/07/13 10:00:24;524718.00;1.75;904.39;63526.00;0.21;110.57;;;;;30.40;1.00;;;;;;2272493;61;1159;-89
2023/07/13 10:03:00;120224.00;0.40;208.47;0.00;0.00;0.62;;;;;30.20;1.00;;;;;;2272224;61;1105;-87
2023/07/13 10:05:28;290845.00;0.97;502.18;110023.00;0.37;190.87;;;;;30.60;1.00;;;;;;2272512;61;1217;-85
2023/07/13 10:07:58;442409.00;1.47;762.73;64053.00;0.21;111.48;;;;;31.00;1.00;;;;;;2272416;61;1998;-87
2023/07/13 10:10:25;319746.00;1.07;551.86;0.00;0.00;0.62;;;;;30.70;1.00;;;;;;2283791;39;3614;-90
2023/07/13 10:12:52;365397.00;1.22;630.33;57661.00;0.19;100.43;;;;;30.80;1.00;;;;;;2278686;39;3602;-88
2023/07/13 10:15:22;325450.00;1.08;561.67;0.00;0.00;0.62;;;;;31.20;1.00;;;;;;2276461;60;1189;-87
2023/07/13 10:17:51;395440.00;1.32;681.97;0.00;0.00;0.62;;;;;31.50;1.00;;;;;;2275797;60;1408;-88
2023/07/13 10:20:20;269777.00;0.90;465.96;0.00;0.00;0.62;;;;;31.70;1.00;;;;;;2272324;61;1138;-86
2023/07/13 10:22:55;139129.00;0.46;241.07;0.00;0.00;0.62;;;;;31.90;1.00;;;;;;2272258;61;1047;-85
2023/07/13 10:25:26;128163.00;0.43;222.16;0.00;0.00;0.62;;;;;31.50;1.00;;;;;;2272409;61;1032;-86
2023/07/13 10:27:59;171008.00;0.57;296.00;0.00;0.00;0.62;;;;;30.90;1.00;;;;;;2272358;61;1927;-85
2023/07/13 10:30:32;205599.00;0.69;355.56;67372.00;0.22;117.22;;;;;30.60;1.00;;;;;;2272153;61;1169;-85
2023/07/13 10:33:02;223649.00;0.75;386.62;0.00;0.00;0.62;;;;;30.90;1.00;;;;;;2272033;61;1041;-87
2023/07/13 10:38:07;972726.00;3.24;1684.23;0.00;0.00;0.62;;;;;31.90;1.00;;;;;;2278498;61;1410;-89
2023/07/13 10:43:23;1247174.00;4.16;2175.75;0.00;0.00;0.62;;;;;32.70;1.00;;;;;;2273715;61;1377;-85
2023/07/13 10:48:20;999962.00;3.33;1732.40;0.00;0.00;0.62;;;;;33.00;1.00;;;;;;2277870;61;1911;-86
2023/07/13 10:50:52;247622.00;0.83;427.86;0.00;0.00;0.62;;;;;33.00;1.00;;;;;;2276055;61;1124;-85
2023/07/13 10:53:21;207823.00;0.69;359.39;0.00;0.00;0.62;;;;;32.20;1.00;;;;;;2276505;61;1129;-86
2023/07/13 10:56:02;93424.00;0.31;162.22;0.00;0.00;0.62;;;;;31.80;1.00;;;;;;2276181;61;1149;-86